Terminal Aerodrome Forecast
Issued by NWS Raleigh/Durham, NC

Home | Current Version | Previous Version | Text Only | Print | Product List | Glossary On
Versions: 1 2 3 4 5 6 7 8 9 10 11 12 13 14 15 16 17 18 19 20 21 22 23 24 25
000
FTUS42 KRAH 022159 CCA
TAFFAY
TAF COR
KFAY 022159Z 0222/0318 20008KT P6SM SCT030 SCT250
      TEMPO 0223/0301 VRB15G30KT 2SM TSRA BR SCT016 BKN024CB
     FM030100 18008KT P6SM SCT025 BKN150
     FM030700 19008KT P6SM OVC006
     FM031400 18009KT P6SM BKN012=

USA.gov is the U.S. government's official web portal to all federal, state and local government web resources and services.